sensor_id;sensor_type;location;lat;lon;timestamp;pressure;altitude;pressure_sealevel;temperature;humidity
45255;BME280;30989;52.078;21.014;2023-12-07T00:00:37;163223.31;;;-2.01;100.00
45255;BME280;30989;52.078;21.014;2023-12-07T00:03:03;163220.66;;;-2.02;100.00
45255;BME280;30989;52.078;21.014;2023-12-07T00:05:32;163229.94;;;-1.99;100.00
45255;BME280;30989;52.078;21.014;2023-12-07T00:07:58;163221.97;;;-2.02;100.00
45255;BME280;30989;52.078;21.014;2023-12-07T00:10:23;163228.63;;;-1.99;100.00
45255;BME280;30989;52.078;21.014;2023-12-07T00:12:49;163223.31;;;-2.01;100.00
45255;BME280;30989;52.078;21.014;2023-12-07T00:15:14;163240.56;;;-1.95;100.00
45255;BME280;30989;52.078;21.014;2023-12-07T00:17:40;163249.88;;;-1.91;100.00
45255;BME280;30989;52.078;21.014;2023-12-07T00:20:06;163232.59;;;-1.98;100.00
45255;BME280;30989;52.078;21.014;2023-12-07T00:22:31;163252.53;;;-1.90;100.00
45255;BME280;30989;52.078;21.014;2023-12-07T00:24:57;163257.81;;;-1.88;100.00
45255;BME280;30989;52.078;21.014;2023-12-07T00:27:22;163252.53;;;-1.90;100.00
45255;BME280;30989;52.078;21.014;2023-12-07T00:29:48;163264.47;;;-1.85;100.00
45255;BME280;30989;52.078;21.014;2023-12-07T00:32:13;163244.56;;;-1.93;100.00
45255;BME280;30989;52.078;21.014;2023-12-07T00:34:39;163275.09;;;-1.81;100.00
45255;BME280;30989;52.078;21.014;2023-12-07T00:37:04;163260.47;;;-1.87;100.00
45255;BME280;30989;52.078;21.014;2023-12-07T00:39:30;163276.41;;;-1.81;100.00
45255;BME280;30989;52.078;21.014;2023-12-07T00:41:55;163263.13;;;-1.86;100.00
45255;BME280;30989;52.078;21.014;2023-12-07T00:44:21;163281.72;;;-1.79;100.00
45255;BME280;30989;52.078;21.014;2023-12-07T00:46:46;163284.38;;;-1.78;100.00
45255;BME280;30989;52.078;21.014;2023-12-07T00:49:12;163288.38;;;-1.76;100.00
45255;BME280;30989;52.078;21.014;2023-12-07T00:51:38;163291.03;;;-1.75;100.00
45255;BME280;30989;52.078;21.014;2023-12-07T00:54:03;163279.06;;;-1.80;100.00
45255;BME280;30989;52.078;21.014;2023-12-07T00:56:29;163293.69;;;-1.74;100.00
45255;BME280;30989;52.078;21.014;2023-12-07T00:58:54;163275.09;;;-1.81;100.00
45255;BME280;30989;52.078;21.014;2023-12-07T01:01:20;163297.66;;;-1.73;100.00
45255;BME280;30989;52.078;21.014;2023-12-07T01:03:45;163292.34;;;-1.75;100.00
45255;BME280;30989;52.078;21.014;2023-12-07T01:06:11;163302.97;;;-1.71;100.00
45255;BME280;30989;52.078;21.014;2023-12-07T01:08:37;163283.06;;;-1.78;100.00
45255;BME280;30989;52.078;21.014;2023-12-07T01:11:04;163308.28;;;-1.69;100.00
45255;BME280;30989;52.078;21.014;2023-12-07T01:13:30;163308.28;;;-1.69;100.00
45255;BME280;30989;52.078;21.014;2023-12-07T01:15:56;163312.28;;;-1.67;100.00
45255;BME280;30989;52.078;21.014;2023-12-07T01:18:21;163308.28;;;-1.69;100.00
45255;BME280;30989;52.078;21.014;2023-12-07T01:20:47;163309.63;;;-1.68;100.00
45255;BME280;30989;52.078;21.014;2023-12-07T01:23:14;163310.94;;;-1.68;100.00
45255;BME280;30989;52.078;21.014;2023-12-07T01:25:39;163310.94;;;-1.68;100.00
45255;BME280;30989;52.078;21.014;2023-12-07T01:28:05;163308.28;;;-1.69;100.00
45255;BME280;30989;52.078;21.014;2023-12-07T01:30:30;163310.94;;;-1.68;100.00
45255;BME280;30989;52.078;21.014;2023-12-07T01:32:56;163309.63;;;-1.68;100.00
45255;BME280;30989;52.078;21.014;2023-12-07T01:35:21;163310.94;;;-1.68;100.00
45255;BME280;30989;52.078;21.014;2023-12-07T01:37:47;163317.59;;;-1.65;100.00
45255;BME280;30989;52.078;21.014;2023-12-07T01:40:12;163289.69;;;-1.76;100.00
45255;BME280;30989;52.078;21.014;2023-12-07T01:42:49;163305.63;;;-1.70;100.00
45255;BME280;30989;52.078;21.014;2023-12-07T01:45:18;163322.91;;;-1.63;100.00
45255;BME280;30989;52.078;21.014;2023-12-07T01:47:44;163324.22;;;-1.63;100.00
45255;BME280;30989;52.078;21.014;2023-12-07T01:50:10;163322.91;;;-1.63;100.00
45255;BME280;30989;52.078;21.014;2023-12-07T01:52:38;163316.25;;;-1.66;100.00
45255;BME280;30989;52.078;21.014;2023-12-07T01:55:06;163326.88;;;-1.62;100.00
45255;BME280;30989;52.078;21.014;2023-12-07T01:57:33;163314.94;;;-1.66;100.00
45255;BME280;30989;52.078;21.014;2023-12-07T01:59:59;163309.63;;;-1.68;100.00
45255;BME280;30989;52.078;21.014;2023-12-07T02:02:25;163321.56;;;-1.64;100.00
45255;BME280;30989;52.078;21.014;2023-12-07T02:04:50;163321.56;;;-1.64;100.00
45255;BME280;30989;52.078;21.014;2023-12-07T02:07:17;163326.88;;;-1.62;100.00
45255;BME280;30989;52.078;21.014;2023-12-07T02:09:43;163325.56;;;-1.62;100.00
45255;BME280;30989;52.078;21.014;2023-12-07T02:12:08;163324.22;;;-1.63;100.00
45255;BME280;30989;52.078;21.014;2023-12-07T02:14:34;163317.59;;;-1.65;100.00
45255;BME280;30989;52.078;21.014;2023-12-07T02:17:16;163326.88;;;-1.62;100.00
45255;BME280;30989;52.078;21.014;2023-12-07T02:19:58;163324.22;;;-1.63;100.00
45255;BME280;30989;52.078;21.014;2023-12-07T02:22:34;163328.22;;;-1.61;100.00
45255;BME280;30989;52.078;21.014;2023-12-07T02:25:06;163336.19;;;-1.58;100.00
45255;BME280;30989;52.078;21.014;2023-12-07T02:27:38;163317.59;;;-1.65;100.00
45255;BME280;30989;52.078;21.014;2023-12-07T02:30:05;163328.22;;;-1.61;100.00
45255;BME280;30989;52.078;21.014;2023-12-07T02:32:30;163334.84;;;-1.58;100.00
45255;BME280;30989;52.078;21.014;2023-12-07T02:34:56;163349.47;;;-1.53;100.00
45255;BME280;30989;52.078;21.014;2023-12-07T02:37:23;163356.09;;;-1.50;100.00
45255;BME280;30989;52.078;21.014;2023-12-07T02:39:52;163358.75;;;-1.49;100.00
45255;BME280;30989;52.078;21.014;2023-12-07T02:42:19;163361.41;;;-1.48;100.00
45255;BME280;30989;52.078;21.014;2023-12-07T02:44:46;163369.38;;;-1.45;100.00
45255;BME280;30989;52.078;21.014;2023-12-07T02:47:11;163368.06;;;-1.46;100.00
45255;BME280;30989;52.078;21.014;2023-12-07T02:49:37;163350.78;;;-1.52;100.00
45255;BME280;30989;52.078;21.014;2023-12-07T02:52:02;163349.47;;;-1.53;100.00
45255;BME280;30989;52.078;21.014;2023-12-07T02:54:28;163365.41;;;-1.47;100.00
45255;BME280;30989;52.078;21.014;2023-12-07T02:56:53;163366.72;;;-1.46;100.00
45255;BME280;30989;52.078;21.014;2023-12-07T02:59:19;163365.41;;;-1.47;100.00
45255;BME280;30989;52.078;21.014;2023-12-07T03:01:44;163348.13;;;-1.53;100.00
45255;BME280;30989;52.078;21.014;2023-12-07T03:04:10;163361.41;;;-1.48;100.00
45255;BME280;30989;52.078;21.014;2023-12-07T03:06:35;163362.75;;;-1.48;100.00
45255;BME280;30989;52.078;21.014;2023-12-07T03:09:01;163361.41;;;-1.48;100.00
45255;BME280;30989;52.078;21.014;2023-12-07T03:11:27;163364.06;;;-1.47;100.00
45255;BME280;30989;52.078;21.014;2023-12-07T03:13:52;163365.41;;;-1.47;100.00
45255;BME280;30989;52.078;21.014;2023-12-07T03:16:20;163365.41;;;-1.47;100.00
45255;BME280;30989;52.078;21.014;2023-12-07T03:18:46;163365.41;;;-1.47;100.00
45255;BME280;30989;52.078;21.014;2023-12-07T03:21:12;163361.41;;;-1.48;100.00
45255;BME280;30989;52.078;21.014;2023-12-07T03:23:37;163358.75;;;-1.49;100.00
45255;BME280;30989;52.078;21.014;2023-12-07T03:26:03;163350.78;;;-1.52;100.00
45255;BME280;30989;52.078;21.014;2023-12-07T03:28:28;163357.44;;;-1.50;100.00
45255;BME280;30989;52.078;21.014;2023-12-07T03:30:54;163345.47;;;-1.54;100.00
45255;BME280;30989;52.078;21.014;2023-12-07T03:33:20;163360.09;;;-1.49;100.00
45255;BME280;30989;52.078;21.014;2023-12-07T03:35:45;163361.41;;;-1.48;100.00
45255;BME280;30989;52.078;21.014;2023-12-07T03:38:11;163360.09;;;-1.49;100.00
45255;BME280;30989;52.078;21.014;2023-12-07T03:40:37;163349.47;;;-1.53;100.00
45255;BME280;30989;52.078;21.014;2023-12-07T03:43:03;163346.78;;;-1.54;100.00
45255;BME280;30989;52.078;21.014;2023-12-07T03:45:29;163353.44;;;-1.51;100.00
45255;BME280;30989;52.078;21.014;2023-12-07T03:47:55;163353.44;;;-1.51;100.00
45255;BME280;30989;52.078;21.014;2023-12-07T03:50:20;163358.75;;;-1.49;100.00
45255;BME280;30989;52.078;21.014;2023-12-07T03:52:46;163360.09;;;-1.49;100.00
45255;BME280;30989;52.078;21.014;2023-12-07T03:55:12;163362.75;;;-1.48;100.00
45255;BME280;30989;52.078;21.014;2023-12-07T03:57:37;163354.78;;;-1.51;100.00
45255;BME280;30989;52.078;21.014;2023-12-07T04:00:03;163352.13;;;-1.52;100.00
45255;BME280;30989;52.078;21.014;2023-12-07T04:02:33;163345.47;;;-1.54;100.00
45255;BME280;30989;52.078;21.014;2023-12-07T04:04:59;163358.75;;;-1.49;100.00
45255;BME280;30989;52.078;21.014;2023-12-07T04:07:28;163352.13;;;-1.52;100.00
45255;BME280;30989;52.078;21.014;2023-12-07T04:09:55;163357.44;;;-1.50;100.00
45255;BME280;30989;52.078;21.014;2023-12-07T04:12:23;163356.09;;;-1.50;100.00
45255;BME280;30989;52.078;21.014;2023-12-07T04:14:50;163350.78;;;-1.52;100.00
45255;BME280;30989;52.078;21.014;2023-12-07T04:17:15;163342.81;;;-1.55;100.00
45255;BME280;30989;52.078;21.014;2023-12-07T04:19:41;163349.47;;;-1.53;100.00
45255;BME280;30989;52.078;21.014;2023-12-07T04:22:06;163336.19;;;-1.58;100.00
45255;BME280;30989;52.078;21.014;2023-12-07T04:24:33;163353.44;;;-1.51;100.00
45255;BME280;30989;52.078;21.014;2023-12-07T04:27:04;163346.78;;;-1.54;100.00
45255;BME280;30989;52.078;21.014;2023-12-07T04:29:30;163372.03;;;-1.44;100.00
45255;BME280;30989;52.078;21.014;2023-12-07T04:31:55;163372.03;;;-1.44;100.00
45255;BME280;30989;52.078;21.014;2023-12-07T04:34:21;163366.72;;;-1.46;100.00
45255;BME280;30989;52.078;21.014;2023-12-07T04:36:46;163369.38;;;-1.45;100.00
45255;BME280;30989;52.078;21.014;2023-12-07T04:39:12;163376.03;;;-1.43;100.00
45255;BME280;30989;52.078;21.014;2023-12-07T04:41:37;163341.50;;;-1.56;100.00
45255;BME280;30989;52.078;21.014;2023-12-07T04:44:03;163373.38;;;-1.44;100.00
45255;BME280;30989;52.078;21.014;2023-12-07T04:46:28;163353.44;;;-1.51;100.00
45255;BME280;30989;52.078;21.014;2023-12-07T04:48:54;163374.69;;;-1.43;100.00
45255;BME280;30989;52.078;21.014;2023-12-07T04:51:20;163372.03;;;-1.44;100.00
45255;BME280;30989;52.078;21.014;2023-12-07T04:53:47;163361.41;;;-1.48;100.00
45255;BME280;30989;52.078;21.014;2023-12-07T04:56:12;163365.41;;;-1.47;100.00
45255;BME280;30989;52.078;21.014;2023-12-07T04:58:38;163376.03;;;-1.43;100.00
45255;BME280;30989;52.078;21.014;2023-12-07T05:01:04;163372.03;;;-1.44;100.00
45255;BME280;30989;52.078;21.014;2023-12-07T05:03:29;163372.03;;;-1.44;100.00
45255;BME280;30989;52.078;21.014;2023-12-07T05:05:55;163365.41;;;-1.47;100.00
45255;BME280;30989;52.078;21.014;2023-12-07T05:08:21;163368.06;;;-1.46;100.00
45255;BME280;30989;52.078;21.014;2023-12-07T05:10:46;163382.66;;;-1.40;100.00
45255;BME280;30989;52.078;21.014;2023-12-07T05:13:12;163365.41;;;-1.47;100.00
45255;BME280;30989;52.078;21.014;2023-12-07T05:15:37;163365.41;;;-1.47;100.00
45255;BME280;30989;52.078;21.014;2023-12-07T05:18:03;163382.66;;;-1.40;100.00
45255;BME280;30989;52.078;21.014;2023-12-07T05:20:28;163382.66;;;-1.40;100.00
45255;BME280;30989;52.078;21.014;2023-12-07T05:22:54;163378.69;;;-1.42;100.00
45255;BME280;30989;52.078;21.014;2023-12-07T05:25:20;163385.31;;;-1.39;100.00
45255;BME280;30989;52.078;21.014;2023-12-07T05:27:45;163361.41;;;-1.48;100.00
45255;BME280;30989;52.078;21.014;2023-12-07T05:30:11;163380.00;;;-1.41;100.00
45255;BME280;30989;52.078;21.014;2023-12-07T05:32:38;163377.34;;;-1.42;100.00
45255;BME280;30989;52.078;21.014;2023-12-07T05:35:04;163364.06;;;-1.47;100.00
45255;BME280;30989;52.078;21.014;2023-12-07T05:37:31;163370.72;;;-1.45;100.00
45255;BME280;30989;52.078;21.014;2023-12-07T05:39:57;163365.41;;;-1.47;100.00
45255;BME280;30989;52.078;21.014;2023-12-07T05:42:22;163373.38;;;-1.44;100.00
45255;BME280;30989;52.078;21.014;2023-12-07T05:44:48;163364.06;;;-1.47;100.00
45255;BME280;30989;52.078;21.014;2023-12-07T05:47:13;163372.03;;;-1.44;100.00
45255;BME280;30989;52.078;21.014;2023-12-07T05:49:39;163377.34;;;-1.42;100.00
45255;BME280;30989;52.078;21.014;2023-12-07T05:52:04;163386.66;;;-1.39;100.00
45255;BME280;30989;52.078;21.014;2023-12-07T05:54:30;163385.31;;;-1.39;100.00
45255;BME280;30989;52.078;21.014;2023-12-07T05:56:55;163382.66;;;-1.40;100.00
45255;BME280;30989;52.078;21.014;2023-12-07T05:59:21;163390.63;;;-1.37;100.00
45255;BME280;30989;52.078;21.014;2023-12-07T06:01:47;163382.66;;;-1.40;100.00
45255;BME280;30989;52.078;21.014;2023-12-07T06:04:13;163389.31;;;-1.38;100.00
45255;BME280;30989;52.078;21.014;2023-12-07T06:06:38;163385.31;;;-1.39;100.00
45255;BME280;30989;52.078;21.014;2023-12-07T06:09:04;163387.97;;;-1.38;100.00
45255;BME280;30989;52.078;21.014;2023-12-07T06:11:33;163387.97;;;-1.38;100.00
45255;BME280;30989;52.078;21.014;2023-12-07T06:14:00;163364.06;;;-1.47;100.00
45255;BME280;30989;52.078;21.014;2023-12-07T06:16:26;163387.97;;;-1.38;100.00
45255;BME280;30989;52.078;21.014;2023-12-07T06:18:52;163390.63;;;-1.37;100.00
45255;BME280;30989;52.078;21.014;2023-12-07T06:21:17;163376.03;;;-1.43;100.00
45255;BME280;30989;52.078;21.014;2023-12-07T06:23:43;163374.69;;;-1.43;100.00
45255;BME280;30989;52.078;21.014;2023-12-07T06:26:11;163387.97;;;-1.38;100.00
45255;BME280;30989;52.078;21.014;2023-12-07T06:28:39;163358.75;;;-1.49;100.00
45255;BME280;30989;52.078;21.014;2023-12-07T06:31:05;163381.34;;;-1.41;100.00
45255;BME280;30989;52.078;21.014;2023-12-07T06:33:32;163350.78;;;-1.52;100.00
45255;BME280;30989;52.078;21.014;2023-12-07T06:35:58;163381.34;;;-1.41;100.00
45255;BME280;30989;52.078;21.014;2023-12-07T06:38:23;163391.97;;;-1.37;100.00
45255;BME280;30989;52.078;21.014;2023-12-07T06:40:52;163387.97;;;-1.38;100.00
45255;BME280;30989;52.078;21.014;2023-12-07T06:43:17;163409.22;;;-1.30;100.00
45255;BME280;30989;52.078;21.014;2023-12-07T06:45:42;163403.91;;;-1.32;100.00
45255;BME280;30989;52.078;21.014;2023-12-07T06:48:08;163399.94;;;-1.34;100.00
45255;BME280;30989;52.078;21.014;2023-12-07T06:50:33;163415.88;;;-1.27;100.00
45255;BME280;30989;52.078;21.014;2023-12-07T06:52:59;163427.81;;;-1.23;100.00
45255;BME280;30989;52.078;21.014;2023-12-07T06:55:25;163426.50;;;-1.23;100.00
45255;BME280;30989;52.078;21.014;2023-12-07T06:57:53;163427.81;;;-1.23;100.00
45255;BME280;30989;52.078;21.014;2023-12-07T07:00:19;163410.56;;;-1.30;100.00
45255;BME280;30989;52.078;21.014;2023-12-07T07:02:45;163441.09;;;-1.18;100.00
45255;BME280;30989;52.078;21.014;2023-12-07T07:05:11;163443.75;;;-1.17;100.00
45255;BME280;30989;52.078;21.014;2023-12-07T07:07:37;163435.78;;;-1.20;100.00
45255;BME280;30989;52.078;21.014;2023-12-07T07:10:03;163437.13;;;-1.19;100.00
45255;BME280;30989;52.078;21.014;2023-12-07T07:12:30;163449.09;;;-1.15;100.00
45255;BME280;30989;52.078;21.014;2023-12-07T07:14:56;163475.66;;;-1.05;100.00
45255;BME280;30989;52.078;21.014;2023-12-07T07:17:22;163483.63;;;-1.02;100.00
45255;BME280;30989;52.078;21.014;2023-12-07T07:19:48;163487.59;;;-1.00;100.00
45255;BME280;30989;52.078;21.014;2023-12-07T07:22:13;163492.91;;;-0.98;100.00
45255;BME280;30989;52.078;21.014;2023-12-07T07:24:38;163471.66;;;-1.06;100.00
45255;BME280;30989;52.078;21.014;2023-12-07T07:27:04;163470.34;;;-1.07;100.00
45255;BME280;30989;52.078;21.014;2023-12-07T07:29:30;163498.25;;;-0.96;100.00
45255;BME280;30989;52.078;21.014;2023-12-07T07:31:57;163499.56;;;-0.95;100.00
45255;BME280;30989;52.078;21.014;2023-12-07T07:34:23;163512.84;;;-0.90;100.00
45255;BME280;30989;52.078;21.014;2023-12-07T07:36:49;163511.53;;;-0.91;100.00
45255;BME280;30989;52.078;21.014;2023-12-07T07:39:15;163503.56;;;-0.94;100.00
45255;BME280;30989;52.078;21.014;2023-12-07T07:41:41;163502.22;;;-0.94;100.00
45255;BME280;30989;52.078;21.014;2023-12-07T07:44:06;163496.91;;;-0.97;100.00
45255;BME280;30989;52.078;21.014;2023-12-07T07:46:33;163486.28;;;-1.01;100.00
45255;BME280;30989;52.078;21.014;2023-12-07T07:49:01;163496.91;;;-0.97;100.00
45255;BME280;30989;52.078;21.014;2023-12-07T07:51:32;163510.19;;;-0.91;100.00
45255;BME280;30989;52.078;21.014;2023-12-07T07:53:59;163494.25;;;-0.98;100.00
45255;BME280;30989;52.078;21.014;2023-12-07T07:56:24;163503.56;;;-0.94;100.00
45255;BME280;30989;52.078;21.014;2023-12-07T07:58:50;163496.91;;;-0.97;100.00
45255;BME280;30989;52.078;21.014;2023-12-07T08:01:15;163512.84;;;-0.90;100.00
45255;BME280;30989;52.078;21.014;2023-12-07T08:03:41;163506.22;;;-0.93;100.00
45255;BME280;30989;52.078;21.014;2023-12-07T08:06:07;163475.66;;;-1.05;100.00
45255;BME280;30989;52.078;21.014;2023-12-07T08:08:33;163502.22;;;-0.94;100.00
45255;BME280;30989;52.078;21.014;2023-12-07T08:10:59;163502.22;;;-0.94;100.00
45255;BME280;30989;52.078;21.014;2023-12-07T08:13:26;163512.84;;;-0.90;100.00
45255;BME280;30989;52.078;21.014;2023-12-07T08:15:53;163510.19;;;-0.91;100.00
45255;BME280;30989;52.078;21.014;2023-12-07T08:18:19;163491.59;;;-0.99;100.00
45255;BME280;30989;52.078;21.014;2023-12-07T08:20:44;163512.84;;;-0.90;100.00
45255;BME280;30989;52.078;21.014;2023-12-07T08:23:10;163526.16;;;-0.85;100.00
45255;BME280;30989;52.078;21.014;2023-12-07T08:25:38;163506.22;;;-0.93;100.00
45255;BME280;30989;52.078;21.014;2023-12-07T08:28:05;163538.09;;;-0.81;100.00
45255;BME280;30989;52.078;21.014;2023-12-07T08:30:30;163539.44;;;-0.80;100.00
45255;BME280;30989;52.078;21.014;2023-12-07T08:32:59;163551.38;;;-0.76;100.00
45255;BME280;30989;52.078;21.014;2023-12-07T08:35:24;163572.66;;;-0.68;100.00
45255;BME280;30989;52.078;21.014;2023-12-07T08:37:53;163563.34;;;-0.71;100.00
45255;BME280;30989;52.078;21.014;2023-12-07T08:40:19;163568.66;;;-0.69;100.00
45255;BME280;30989;52.078;21.014;2023-12-07T08:42:45;163567.34;;;-0.70;100.00
45255;BME280;30989;52.078;21.014;2023-12-07T08:45:14;163572.66;;;-0.68;100.00
45255;BME280;30989;52.078;21.014;2023-12-07T08:47:41;163589.94;;;-0.61;100.00
45255;BME280;30989;52.078;21.014;2023-12-07T08:50:07;163605.88;;;-0.55;100.00
45255;BME280;30989;52.078;21.014;2023-12-07T08:52:36;163603.22;;;-0.56;100.00
45255;BME280;30989;52.078;21.014;2023-12-07T08:55:01;163591.25;;;-0.60;100.00
45255;BME280;30989;52.078;21.014;2023-12-07T08:57:27;163577.97;;;-0.66;100.00
45255;BME280;30989;52.078;21.014;2023-12-07T08:59:52;163571.31;;;-0.68;100.00
45255;BME280;30989;52.078;21.014;2023-12-07T09:02:20;163560.69;;;-0.72;100.00
45255;BME280;30989;52.078;21.014;2023-12-07T09:04:46;163589.94;;;-0.61;100.00
45255;BME280;30989;52.078;21.014;2023-12-07T09:07:11;163592.59;;;-0.60;100.00
45255;BME280;30989;52.078;21.014;2023-12-07T09:09:41;163589.94;;;-0.61;100.00
45255;BME280;30989;52.078;21.014;2023-12-07T09:12:13;163601.88;;;-0.56;100.00
45255;BME280;30989;52.078;21.014;2023-12-07T09:14:38;163596.56;;;-0.58;100.00
45255;BME280;30989;52.078;21.014;2023-12-07T09:17:04;163608.53;;;-0.54;100.00
45255;BME280;30989;52.078;21.014;2023-12-07T09:19:29;163601.88;;;-0.56;100.00
45255;BME280;30989;52.078;21.014;2023-12-07T09:21:54;163620.50;;;-0.49;100.00
45255;BME280;30989;52.078;21.014;2023-12-07T09:24:20;163615.19;;;-0.51;100.00
45255;BME280;30989;52.078;21.014;2023-12-07T09:26:46;163621.81;;;-0.49;100.00
45255;BME280;30989;52.078;21.014;2023-12-07T09:29:14;163653.72;;;-0.37;100.00
45255;BME280;30989;52.078;21.014;2023-12-07T09:31:39;163655.06;;;-0.36;100.00
45255;BME280;30989;52.078;21.014;2023-12-07T09:34:05;163653.72;;;-0.37;100.00
45255;BME280;30989;52.078;21.014;2023-12-07T09:36:30;163660.38;;;-0.34;100.00
45255;BME280;30989;52.078;21.014;2023-12-07T09:38:56;163661.72;;;-0.34;100.00
45255;BME280;30989;52.078;21.014;2023-12-07T09:41:22;163677.66;;;-0.27;100.00
45255;BME280;30989;52.078;21.014;2023-12-07T09:43:49;163681.66;;;-0.26;100.00
45255;BME280;30989;52.078;21.014;2023-12-07T09:46:14;163685.63;;;-0.24;100.00
45255;BME280;30989;52.078;21.014;2023-12-07T09:48:42;163684.31;;;-0.25;100.00
45255;BME280;30989;52.078;21.014;2023-12-07T09:51:10;163672.34;;;-0.29;100.00
45255;BME280;30989;52.078;21.014;2023-12-07T09:53:38;163676.31;;;-0.28;100.00
45255;BME280;30989;52.078;21.014;2023-12-07T09:56:08;163672.34;;;-0.29;100.00
45255;BME280;30989;52.078;21.014;2023-12-07T09:58:33;163688.28;;;-0.23;100.00
45255;BME280;30989;52.078;21.014;2023-12-07T10:00:59;163722.84;;;-0.10;100.00
45255;BME280;30989;52.078;21.014;2023-12-07T10:03:24;163738.81;;;-0.04;100.00
45255;BME280;30989;52.078;21.014;2023-12-07T10:08:31;163709.56;;;-0.15;100.00
45255;BME280;30989;52.078;21.014;2023-12-07T10:11:10;163681.66;;;-0.26;100.00
45255;BME280;30989;52.078;21.014;2023-12-07T10:13:38;163714.88;;;-0.13;100.00
45255;BME280;30989;52.078;21.014;2023-12-07T10:16:08;163716.22;;;-0.13;100.00
45255;BME280;30989;52.078;21.014;2023-12-07T10:18:35;163728.16;;;-0.08;100.00
45255;BME280;30989;52.078;21.014;2023-12-07T10:21:00;163757.47;;;0.03;100.00
45255;BME280;30989;52.078;21.014;2023-12-07T10:23:26;163781.41;;;0.12;100.00
45255;BME280;30989;52.078;21.014;2023-12-07T10:25:52;163797.38;;;0.18;100.00
45255;BME280;30989;52.078;21.014;2023-12-07T10:28:18;163790.72;;;0.16;100.00
45255;BME280;30989;52.078;21.014;2023-12-07T10:30:45;163794.72;;;0.17;100.00
45255;BME280;30989;52.078;21.014;2023-12-07T10:33:11;163792.06;;;0.16;100.00
45255;BME280;30989;52.078;21.014;2023-12-07T10:35:39;163800.03;;;0.19;100.00
45255;BME280;30989;52.078;21.014;2023-12-07T10:38:07;163800.03;;;0.19;100.00
45255;BME280;30989;52.078;21.014;2023-12-07T10:40:32;163810.66;;;0.23;100.00
45255;BME280;30989;52.078;21.014;2023-12-07T10:42:58;163800.03;;;0.19;100.00
45255;BME280;30989;52.078;21.014;2023-12-07T10:45:30;163781.41;;;0.12;100.00
45255;BME280;30989;52.078;21.014;2023-12-07T10:48:10;163769.44;;;0.08;100.00
45255;BME280;30989;52.078;21.014;2023-12-07T10:50:37;163762.78;;;0.05;100.00
45255;BME280;30989;52.078;21.014;2023-12-07T10:53:34;163760.13;;;0.04;100.00
45255;BME280;30989;52.078;21.014;2023-12-07T10:56:10;163730.84;;;-0.07;100.00
45255;BME280;30989;52.078;21.014;2023-12-07T10:58:36;163733.50;;;-0.06;100.00
45255;BME280;30989;52.078;21.014;2023-12-07T11:01:03;163722.84;;;-0.10;100.00
45255;BME280;30989;52.078;21.014;2023-12-07T11:03:29;163729.50;;;-0.08;100.00
45255;BME280;30989;52.078;21.014;2023-12-07T11:05:55;163724.19;;;-0.10;100.00
45255;BME280;30989;52.078;21.014;2023-12-07T11:08:23;163717.53;;;-0.12;100.00
45255;BME280;30989;52.078;21.014;2023-12-07T11:11:15;163718.88;;;-0.12;100.00
45255;BME280;30989;52.078;21.014;2023-12-07T11:14:03;163716.22;;;-0.13;100.00
45255;BME280;30989;52.078;21.014;2023-12-07T11:16:37;163716.22;;;-0.13;100.00
45255;BME280;30989;52.078;21.014;2023-12-07T11:19:03;163718.88;;;-0.12;100.00
45255;BME280;30989;52.078;21.014;2023-12-07T11:21:32;163696.25;;;-0.20;100.00
45255;BME280;30989;52.078;21.014;2023-12-07T11:24:00;163706.91;;;-0.16;100.00
45255;BME280;30989;52.078;21.014;2023-12-07T11:26:29;163726.84;;;-0.09;100.00
45255;BME280;30989;52.078;21.014;2023-12-07T11:28:55;163728.16;;;-0.08;100.00
45255;BME280;30989;52.078;21.014;2023-12-07T11:31:22;163757.47;;;0.03;100.00
45255;BME280;30989;52.078;21.014;2023-12-07T11:33:47;163764.13;;;0.06;100.00
45255;BME280;30989;52.078;21.014;2023-12-07T11:36:13;163762.78;;;0.05;100.00
45255;BME280;30989;52.078;21.014;2023-12-07T11:41:43;163762.78;;;0.05;100.00
45255;BME280;30989;52.078;21.014;2023-12-07T11:44:10;163764.13;;;0.06;100.00
45255;BME280;30989;52.078;21.014;2023-12-07T11:46:37;163734.81;;;-0.06;100.00
45255;BME280;30989;52.078;21.014;2023-12-07T11:49:03;163717.53;;;-0.12;100.00
45255;BME280;30989;52.078;21.014;2023-12-07T11:51:29;163684.31;;;-0.25;100.00
45255;BME280;30989;52.078;21.014;2023-12-07T11:53:55;163677.66;;;-0.27;100.00
45255;BME280;30989;52.078;21.014;2023-12-07T11:56:20;163669.69;;;-0.30;100.00
45255;BME280;30989;52.078;21.014;2023-12-07T11:58:47;163656.38;;;-0.36;100.00
45255;BME280;30989;52.078;21.014;2023-12-07T12:01:13;163667.03;;;-0.32;100.00
45255;BME280;30989;52.078;21.014;2023-12-07T12:03:38;163669.69;;;-0.30;100.00
45255;BME280;30989;52.078;21.014;2023-12-07T12:06:05;163665.69;;;-0.32;100.00
45255;BME280;30989;52.078;21.014;2023-12-07T12:08:33;163671.00;;;-0.30;100.00
45255;BME280;30989;52.078;21.014;2023-12-07T12:10:59;163664.38;;;-0.33;100.00
45255;BME280;30989;52.078;21.014;2023-12-07T12:13:30;163688.28;;;-0.23;100.00
45255;BME280;30989;52.078;21.014;2023-12-07T12:15:58;163689.63;;;-0.23;100.00
45255;BME280;30989;52.078;21.014;2023-12-07T12:18:24;163672.34;;;-0.29;100.00
45255;BME280;30989;52.078;21.014;2023-12-07T12:20:53;163653.72;;;-0.37;100.00
45255;BME280;30989;52.078;21.014;2023-12-07T12:23:20;163653.72;;;-0.37;100.00
45255;BME280;30989;52.078;21.014;2023-12-07T12:25:45;163637.78;;;-0.43;100.00
45255;BME280;30989;52.078;21.014;2023-12-07T12:28:15;163665.69;;;-0.32;100.00
45255;BME280;30989;52.078;21.014;2023-12-07T12:30:41;163663.03;;;-0.33;100.00
45255;BME280;30989;52.078;21.014;2023-12-07T12:33:07;163675.00;;;-0.28;100.00